Ana Sayfa
METAR-TAF:

METAR-TAF

Havaalanları :

Louis Trichardt, Güney Afrika

Enlem: 23-09-36S, Boylam: 029-41-48E, yükseklik: 935 m

METAR: eksik

Saat: 11:27 (09:27 UTC)

Tahmin

Rapor saat 06:00 UTC de 27 saat ve 27 dakika önce yapıldı.
Ayın 23'si saat 07 UTC'den ayın 23'si saat 18 UTC'ye kadar geçerli Tahmin
Rüzgar doğudan 15 kt
Görüş mesafesi 10 km veya daha fazla
1500 m altında bulut yok ve kümülonimbus yok

TAF: FALM 230600Z 2307/2318 10015KT CAVOK TX28/2312Z TN20/2318Z

4.000'den fazla havaalanı için hava durumu gözlemleri ve tahminleri (METAR ve TAF raporları).

Kullanılabilir istasyonlar harita üzerinde sarı ve kırmızı noktalarla gösterilir.

İstasyonun adını görmek için fareyi noktanın üzerinde gezdirin.

Sonrasında hava gözlem ve tahminlerini görmek için tıklayın.

Haritayı değiştirmek için: yaklaştırmak için siyah artı işaretli yeşil düğmeye ve uzaklaştırmak için de eksi işaretli düğmeye hızla tıklayın; bitişik haritalar için yeşil okları kullanın.


METAR-TAF: